Rechercher aéroport 
image banner adimage banner adimage banner ad
image banner ad

O79 - Sierraville Dearwater

Situé à Sierraville, United States

ICAO - O79, IATA -

Données fournies par Airmate  

Information générale

Coordonnées: N39°34'54" W120°21'15"
Élévation : 4984 feet MSL.
Variation magnétique : 16° East
Voir autres Aéroports à California

Données opérationnelles

Special qualification required
Heure actuelle UTC:
Heure actuelle locale:
Météo à : KTRK - Truckee-Tahoe ( 34 km )
METAR: KTRK 251215Z AUTO 00000KT 10SM OVC026 09/03 A3026 RMK AO2
TAF: KTRK 251120Z 2512/2612 VRB03KT P6SM BKN025 FM251600 VRB05KT 5SM FU HZ BKN040 FM252000 25009G18KT P6SM SCT090 SCT200 FM260300 VRB03KT P6SM SCT100 BKN200
Voir NOTAMs / SUP AIP / TFR affectant cet aéroport [VIEW]
Fréquences de communication: [VIEW]

Pistes:

Identifiant RWYQFULongueur (ft)Largeur (ft)SurfaceLDA (ft)
03326050ASPH
21326050ASPH

Coordonnées de l'aéroport

Adresse: Sierraville United States

Vue satellite de O79